createdAt,value
2019-04-11T00:02:26.916Z,65.90
2019-04-11T00:05:00.034Z,65.90
2019-04-11T00:07:33.536Z,66.00
2019-04-11T00:10:06.533Z,66.00
2019-04-11T00:12:38.836Z,66.10
2019-04-11T00:15:10.740Z,66.00
2019-04-11T00:17:42.393Z,66.00
2019-04-11T00:20:13.801Z,66.00
2019-04-11T00:22:45.846Z,66.10
2019-04-11T00:25:19.822Z,66.20
2019-04-11T00:27:51.334Z,66.20
2019-04-11T00:30:24.012Z,66.30
2019-04-11T00:32:56.079Z,66.40
2019-04-11T00:35:27.925Z,66.40
2019-04-11T00:38:03.090Z,66.50
2019-04-11T00:40:35.439Z,66.50
2019-04-11T00:43:07.351Z,66.50
2019-04-11T00:45:40.083Z,66.40
2019-04-11T00:48:11.708Z,66.40
2019-04-11T00:50:43.372Z,66.40
2019-04-11T00:53:16.012Z,66.40
2019-04-11T00:55:48.119Z,66.40
2019-04-11T00:58:19.884Z,66.50
2019-04-11T01:00:53.430Z,66.40
2019-04-11T01:03:26.310Z,66.40
2019-04-11T01:06:00.049Z,66.50
2019-04-11T01:08:33.065Z,66.40
2019-04-11T01:11:05.942Z,66.50
2019-04-11T01:13:45.604Z,66.60
2019-04-11T01:16:23.598Z,66.60
2019-04-11T01:18:55.205Z,66.70
2019-04-11T01:21:26.680Z,67.00
2019-04-11T01:23:58.005Z,67.10
2019-04-11T01:26:29.755Z,67.00
2019-04-11T01:29:02.916Z,67.00
2019-04-11T01:31:36.429Z,67.00
2019-04-11T01:34:08.610Z,67.00
2019-04-11T01:36:40.099Z,66.90
2019-04-11T01:39:35.039Z,66.90
2019-04-11T01:42:07.391Z,67.00
2019-04-11T01:44:46.323Z,67.80
2019-04-11T01:47:49.623Z,67.00
2019-04-11T01:50:25.223Z,67.10
2019-04-11T01:52:56.926Z,67.10
2019-04-11T01:55:30.946Z,67.30
2019-04-11T01:58:02.639Z,67.50
2019-04-11T02:00:54.790Z,67.70
2019-04-11T02:03:39.311Z,67.60
2019-04-11T02:06:12.045Z,68.00
2019-04-11T02:08:43.839Z,68.10
2019-04-11T02:11:15.812Z,68.10
2019-04-11T02:13:48.163Z,68.00
2019-04-11T02:16:21.704Z,67.90
2019-04-11T02:18:54.012Z,67.60
2019-04-11T02:21:27.445Z,67.60
2019-04-11T02:24:17.765Z,67.50
2019-04-11T02:27:01.385Z,67.30
2019-04-11T02:29:33.257Z,67.40
2019-04-11T02:32:09.681Z,68.40
2019-04-11T02:34:41.173Z,67.60
2019-04-11T02:37:13.471Z,67.60
2019-04-11T02:39:47.110Z,67.60
2019-04-11T02:42:21.370Z,67.70
2019-04-11T02:45:09.320Z,67.70
2019-04-11T02:47:30.827Z,68.70
2019-04-11T02:50:03.486Z,67.80
2019-04-11T02:52:35.553Z,67.60
2019-04-11T02:55:08.510Z,67.40
2019-04-11T02:57:42.437Z,67.40
2019-04-11T03:00:15.855Z,67.60
2019-04-11T03:02:50.868Z,67.70
2019-04-11T03:05:24.543Z,68.70
2019-04-11T03:08:00.532Z,68.20
2019-04-11T03:10:33.696Z,68.20
2019-04-11T03:13:05.832Z,68.00
2019-04-11T03:15:54.752Z,68.00
2019-04-11T03:18:14.198Z,68.90
2019-04-11T03:20:54.881Z,68.00
2019-04-11T03:23:21.092Z,68.10
2019-04-11T03:25:52.465Z,68.50
2019-04-11T03:28:28.332Z,68.40
2019-04-11T03:31:26.436Z,68.40
2019-04-11T03:34:30.537Z,68.40
2019-04-11T03:39:05.721Z,68.00
2019-04-11T03:41:34.797Z,68.20
2019-04-11T03:44:01.914Z,68.50
2019-04-11T03:46:45.045Z,68.80
2019-04-11T03:49:12.354Z,68.60
2019-04-11T03:51:34.036Z,68.50
2019-04-11T03:54:07.568Z,68.20
2019-04-11T03:56:39.047Z,68.20
2019-04-11T03:59:14.846Z,68.20
2019-04-11T04:01:44.493Z,68.40
2019-04-11T04:04:19.454Z,68.50
2019-04-11T04:06:55.306Z,68.50
2019-04-11T04:09:29.103Z,68.60
2019-04-11T04:12:02.748Z,68.60
2019-04-11T04:14:42.741Z,68.80
2019-04-11T04:17:36.478Z,68.70
2019-04-11T04:20:26.921Z,68.80
2019-04-11T04:23:22.595Z,68.80
2019-04-11T04:25:54.514Z,68.80
2019-04-11T04:28:27.232Z,69.10
2019-04-11T04:31:00.215Z,69.30
2019-04-11T04:33:35.101Z,69.40
2019-04-11T04:36:08.712Z,69.60
2019-04-11T04:38:41.376Z,69.90
2019-04-11T04:41:22.393Z,69.90
2019-04-11T04:43:48.267Z,70.00
2019-04-11T04:46:38.184Z,69.80
2019-04-11T04:48:53.937Z,69.80
2019-04-11T04:51:30.675Z,69.30
2019-04-11T04:54:07.957Z,68.90
2019-04-11T04:56:41.923Z,68.50
2019-04-11T04:59:14.658Z,67.70
2019-04-11T05:01:48.268Z,66.90
2019-04-11T05:04:21.023Z,66.20
2019-04-11T05:06:54.377Z,65.50
2019-04-11T05:09:26.186Z,64.70
2019-04-11T05:11:57.523Z,64.00
2019-04-11T05:14:29.540Z,63.20
2019-04-11T05:17:02.375Z,62.40
2019-04-11T05:19:34.781Z,61.60
2019-04-11T05:22:06.517Z,60.90
2019-04-11T05:24:38.898Z,60.10
2019-04-11T05:27:10.494Z,59.70
2019-04-11T05:29:43.901Z,59.30
2019-04-11T05:32:15.521Z,58.80
2019-04-11T05:34:46.949Z,58.20
2019-04-11T05:37:18.633Z,57.50
2019-04-11T05:39:50.433Z,56.90
2019-04-11T05:42:25.203Z,56.20
2019-04-11T05:44:56.941Z,55.70
2019-04-11T05:47:29.621Z,55.30
2019-04-11T05:50:16.523Z,54.90
2019-04-11T05:52:48.338Z,54.40
2019-04-11T05:55:21.074Z,54.10
2019-04-11T05:57:52.982Z,53.60
2019-04-11T06:00:39.093Z,53.20
2019-04-11T06:03:11.098Z,52.90
2019-04-11T06:06:16.728Z,52.70
2019-04-11T06:08:48.598Z,52.30
2019-04-11T06:11:39.255Z,52.90
2019-04-11T06:14:25.309Z,51.80
2019-04-11T06:17:00.765Z,51.90
2019-04-11T06:19:48.027Z,51.80
2019-04-11T06:22:23.574Z,51.50
2019-04-11T06:25:13.978Z,50.70
2019-04-11T06:27:57.997Z,50.50
2019-04-11T06:31:01.037Z,50.70
2019-04-11T06:33:38.917Z,50.60
2019-04-11T06:36:18.101Z,50.30
2019-04-11T06:38:58.743Z,49.50
2019-04-11T06:41:50.405Z,49.40
2019-04-11T06:44:50.173Z,48.80
2019-04-11T06:47:41.019Z,47.00
2019-04-11T06:50:19.456Z,46.80
2019-04-11T06:52:51.324Z,46.00
2019-04-11T06:55:33.668Z,46.30
2019-04-11T06:58:19.231Z,45.10
2019-04-11T07:00:57.794Z,44.70
2019-04-11T07:03:33.904Z,44.50
2019-04-11T07:06:19.614Z,44.30
2019-04-11T07:09:14.843Z,44.40
2019-04-11T07:12:01.367Z,44.60
2019-04-11T07:14:41.599Z,43.70
2019-04-11T07:17:31.769Z,43.90
2019-04-11T07:20:27.681Z,44.70
2019-04-11T07:23:17.012Z,46.30
2019-04-11T07:26:10.307Z,47.40
2019-04-11T07:29:04.607Z,48.20
2019-04-11T07:31:54.796Z,48.60
2019-04-11T07:34:45.759Z,49.20
2019-04-11T07:37:30.228Z,49.80
2019-04-11T07:40:24.255Z,50.60
2019-04-11T07:43:16.856Z,51.50
2019-04-11T07:46:25.261Z,52.20
2019-04-11T07:49:05.922Z,52.60
2019-04-11T07:51:42.839Z,53.20
2019-04-11T07:54:16.179Z,54.10
2019-04-11T07:57:06.509Z,54.10
2019-04-11T07:59:57.871Z,54.30
2019-04-11T08:02:47.831Z,54.30
2019-04-11T08:05:51.430Z,54.30
2019-04-11T08:08:36.836Z,54.40
2019-04-11T08:11:19.856Z,54.30
2019-04-11T08:14:10.830Z,54.00
2019-04-11T08:17:00.127Z,53.70
2019-04-11T08:19:49.737Z,53.20
2019-04-11T08:22:41.360Z,52.40
2019-04-11T08:25:45.220Z,50.90
2019-04-11T08:28:17.032Z,50.40
2019-04-11T08:31:11.007Z,50.40
2019-04-11T08:33:42.600Z,50.20
2019-04-11T08:36:24.223Z,49.40
2019-04-11T08:38:56.450Z,49.50
2019-04-11T08:42:07.351Z,49.30
2019-04-11T08:44:41.833Z,49.10
2019-04-11T08:47:16.246Z,48.90
2019-04-11T08:49:58.435Z,48.30
2019-04-11T08:52:42.283Z,48.60
2019-04-11T08:55:47.707Z,48.20
2019-04-11T08:58:38.482Z,48.40
2019-04-11T09:01:11.719Z,48.80
2019-04-11T09:04:06.775Z,47.20
2019-04-11T09:06:37.073Z,47.80
2019-04-11T09:09:33.473Z,47.90
2019-04-11T09:12:08.223Z,48.10
2019-04-11T09:14:57.529Z,48.20
2019-04-11T09:17:32.402Z,48.50
2019-04-11T09:20:38.362Z,48.80
2019-04-11T09:23:21.765Z,49.90
2019-04-11T09:26:15.987Z,48.70
2019-04-11T09:28:49.593Z,48.70
2019-04-11T09:31:41.694Z,48.70
2019-04-11T09:34:43.954Z,48.60
2019-04-11T09:37:29.500Z,49.30
2019-04-11T09:40:23.853Z,48.80
2019-04-11T09:43:11.551Z,49.10
2019-04-11T09:46:01.803Z,49.30
2019-04-11T09:48:51.570Z,49.70
2019-04-11T09:51:51.949Z,49.90
2019-04-11T09:54:40.009Z,50.10
2019-04-11T09:57:34.546Z,50.40
2019-04-11T10:00:24.255Z,51.40
2019-04-11T10:02:58.636Z,51.00
2019-04-11T10:05:44.813Z,51.00
2019-04-11T10:08:44.268Z,51.10
2019-04-11T10:11:55.077Z,51.20
2019-04-11T10:14:29.393Z,51.20
2019-04-11T10:17:20.794Z,51.10
2019-04-11T10:19:57.597Z,51.10
2019-04-11T10:22:48.425Z,50.90
2019-04-11T10:25:45.602Z,50.90
2019-04-11T10:28:42.129Z,50.90
2019-04-11T10:31:15.600Z,50.80
2019-04-11T10:34:15.350Z,50.70
2019-04-11T10:36:53.741Z,50.80
2019-04-11T10:39:54.640Z,50.80
2019-04-11T10:42:26.944Z,50.80
2019-04-11T10:45:20.572Z,50.60
2019-04-11T10:47:55.853Z,50.70
2019-04-11T10:50:52.740Z,50.30
2019-04-11T10:53:27.023Z,50.20
2019-04-11T10:56:18.116Z,50.00
2019-04-11T10:58:55.385Z,50.00
2019-04-11T11:01:46.875Z,50.10
2019-04-11T11:04:27.516Z,50.60
2019-04-11T11:07:06.512Z,49.60
2019-04-11T11:09:52.548Z,49.50
2019-04-11T11:12:59.413Z,49.20
2019-04-11T11:15:33.825Z,49.50
2019-04-11T11:18:48.196Z,49.40
2019-04-11T11:21:14.808Z,49.30
2019-04-11T11:24:07.218Z,48.90
2019-04-11T11:26:39.044Z,48.80
2019-04-11T11:29:45.367Z,48.80
2019-04-11T11:32:25.189Z,48.60
2019-04-11T11:35:09.069Z,47.80
2019-04-11T11:38:03.891Z,48.10
2019-04-11T11:41:14.288Z,48.20
2019-04-11T11:43:46.103Z,48.20
2019-04-11T11:46:43.077Z,48.30
2019-04-11T11:49:42.490Z,48.30
2019-04-11T11:52:17.278Z,48.20
2019-04-11T11:54:51.590Z,48.40
2019-04-11T11:57:34.997Z,48.50
2019-04-11T12:00:14.946Z,48.70
2019-04-11T12:03:08.626Z,48.80
2019-04-11T12:05:53.616Z,48.90
2019-04-11T12:08:48.270Z,49.00
2019-04-11T12:11:19.971Z,49.20
2019-04-11T12:14:11.621Z,49.20
2019-04-11T12:17:12.347Z,49.30
2019-04-11T12:19:54.746Z,49.40
2019-04-11T12:22:28.485Z,49.40
2019-04-11T12:25:07.302Z,49.50
2019-04-11T12:27:52.159Z,49.40
2019-04-11T12:30:44.942Z,50.20
2019-04-11T12:33:35.269Z,49.40
2019-04-11T12:36:20.946Z,49.30
2019-04-11T12:39:12.536Z,49.40
2019-04-11T12:41:53.908Z,49.20
2019-04-11T12:44:46.200Z,49.30
2019-04-11T12:47:30.671Z,49.60
2019-04-11T12:50:30.450Z,50.60
2019-04-11T12:53:09.843Z,50.20
2019-04-11T12:56:00.468Z,50.30
2019-04-11T12:58:54.003Z,50.60
2019-04-11T13:01:42.908Z,50.90
2019-04-11T13:04:27.006Z,51.10
2019-04-11T13:07:12.800Z,51.20
2019-04-11T13:10:08.190Z,51.30
2019-04-11T13:13:10.947Z,51.30
2019-04-11T13:15:57.347Z,51.40
2019-04-11T13:19:02.682Z,51.30
2019-04-11T13:21:43.580Z,51.30
2019-04-11T13:24:37.220Z,51.60
2019-04-11T13:27:27.473Z,51.60
2019-04-11T13:30:17.856Z,51.70
2019-04-11T13:32:50.943Z,51.80
2019-04-11T13:35:53.477Z,51.70
2019-04-11T13:38:57.253Z,51.70
2019-04-11T13:41:46.386Z,51.70
2019-04-11T13:44:27.255Z,51.80
2019-04-11T13:47:15.545Z,51.80
2019-04-11T13:49:49.044Z,51.80
2019-04-11T13:52:31.008Z,52.00
2019-04-11T13:55:10.869Z,52.10
2019-04-11T13:58:04.444Z,52.20
2019-04-11T14:00:41.442Z,52.30
2019-04-11T14:03:25.039Z,52.30
2019-04-11T14:05:58.846Z,52.30
2019-04-11T14:08:37.365Z,52.40
2019-04-11T14:11:11.907Z,52.40
2019-04-11T14:13:44.557Z,52.40
2019-04-11T14:16:18.463Z,52.40
2019-04-11T14:19:18.344Z,52.20
2019-04-11T14:21:52.212Z,52.20
2019-04-11T14:24:42.746Z,52.20
2019-04-11T14:27:20.490Z,52.20
2019-04-11T14:30:20.284Z,52.10
2019-04-11T14:32:53.968Z,52.00
2019-04-11T14:35:47.193Z,51.90
2019-04-11T14:38:21.519Z,51.90
2019-04-11T14:41:11.966Z,51.80
2019-04-11T14:43:57.713Z,51.70
2019-04-11T14:46:48.653Z,51.50
2019-04-11T14:49:21.315Z,51.30
2019-04-11T14:52:10.488Z,51.00
2019-04-11T14:55:03.346Z,50.90
2019-04-11T14:57:54.507Z,50.60
2019-04-11T15:00:35.905Z,50.60
2019-04-11T15:03:36.480Z,50.40
2019-04-11T15:06:26.910Z,50.30
2019-04-11T15:09:30.076Z,50.20
2019-04-11T15:12:11.082Z,50.20
2019-04-11T15:15:01.753Z,50.20
2019-04-11T15:17:39.665Z,50.20
2019-04-11T15:20:27.726Z,50.20
2019-04-11T15:23:18.049Z,50.30
2019-04-11T15:26:10.141Z,50.40
2019-04-11T15:29:00.850Z,51.20
2019-04-11T15:32:02.572Z,50.60
2019-04-11T15:34:39.669Z,50.60
2019-04-11T15:37:43.710Z,50.70
2019-04-11T15:40:45.573Z,50.80
2019-04-11T15:43:42.112Z,51.00
2019-04-11T15:46:29.091Z,51.30
2019-04-11T15:49:31.171Z,51.60
2019-04-11T15:52:06.814Z,51.90
2019-04-11T15:54:48.990Z,52.10
2019-04-11T15:57:33.501Z,52.20
2019-04-11T16:00:29.183Z,52.50
2019-04-11T16:03:17.717Z,52.50
2019-04-11T16:06:07.810Z,52.60
2019-04-11T16:08:54.194Z,52.80
2019-04-11T16:11:51.775Z,52.80
2019-04-11T16:14:29.458Z,53.00
2019-04-11T16:17:23.126Z,53.10
2019-04-11T16:20:03.736Z,53.00
2019-04-11T16:23:10.644Z,53.20
2019-04-11T16:25:48.339Z,53.40
2019-04-11T16:28:38.155Z,53.60
2019-04-11T16:31:13.773Z,53.80
2019-04-11T16:34:15.896Z,53.90
2019-04-11T16:36:51.848Z,54.10
2019-04-11T16:39:45.382Z,54.40
2019-04-11T16:42:35.986Z,54.50
2019-04-11T16:45:37.773Z,54.50
2019-04-11T16:48:09.817Z,54.60
2019-04-11T16:50:42.778Z,54.80
2019-04-11T16:53:14.338Z,54.90
2019-04-11T16:55:45.946Z,54.90
2019-04-11T16:58:19.602Z,55.10
2019-04-11T17:00:52.589Z,55.30
2019-04-11T17:03:25.092Z,55.40
2019-04-11T17:06:06.954Z,55.60
2019-04-11T17:08:46.598Z,55.80
2019-04-11T17:11:19.595Z,55.90
2019-04-11T17:13:50.947Z,56.40
2019-04-11T17:16:22.894Z,56.30
2019-04-11T17:18:57.694Z,56.40
2019-04-11T17:21:29.386Z,56.30
2019-04-11T17:24:02.618Z,56.40
2019-04-11T17:26:34.575Z,56.60
2019-04-11T17:29:06.404Z,56.60
2019-04-11T17:31:38.185Z,56.80
2019-04-11T17:34:10.308Z,57.00
2019-04-11T17:36:42.410Z,57.10
2019-04-11T17:39:15.334Z,57.20
2019-04-11T17:41:46.820Z,57.40
2019-04-11T17:44:18.099Z,57.40
2019-04-11T17:46:49.925Z,57.50
2019-04-11T17:49:23.152Z,57.70
2019-04-11T17:51:58.994Z,57.80
2019-04-11T17:54:31.732Z,58.00
2019-04-11T17:57:03.112Z,57.90
2019-04-11T17:59:35.096Z,58.00
2019-04-11T18:02:10.092Z,58.10
2019-04-11T18:04:44.093Z,58.90
2019-04-11T18:07:16.936Z,58.90
2019-04-11T18:09:47.245Z,58.30
2019-04-11T18:12:20.541Z,58.40
2019-04-11T18:14:55.573Z,58.40
2019-04-11T18:17:27.179Z,58.30
2019-04-11T18:19:58.546Z,58.30
2019-04-11T18:22:31.502Z,58.40
2019-04-11T18:25:03.677Z,58.30
2019-04-11T18:27:38.861Z,58.30
2019-04-11T18:30:13.196Z,58.20
2019-04-11T18:32:44.747Z,58.20
2019-04-11T18:35:16.473Z,58.20
2019-04-11T18:37:49.698Z,58.20
2019-04-11T18:40:21.422Z,58.00
2019-04-11T18:42:52.988Z,58.10
2019-04-11T18:45:25.002Z,58.10
2019-04-11T18:47:57.998Z,58.20
2019-04-11T18:50:30.949Z,58.20
2019-04-11T18:53:02.224Z,58.20
2019-04-11T18:55:35.414Z,58.20
2019-04-11T18:58:06.749Z,58.20
2019-04-11T19:00:39.212Z,58.20
2019-04-11T19:03:11.211Z,58.40
2019-04-11T19:05:43.530Z,58.40
2019-04-11T19:08:17.673Z,58.50
2019-04-11T19:10:49.125Z,58.50
2019-04-11T19:13:20.693Z,58.60
2019-04-11T19:15:52.581Z,58.80
2019-04-11T19:18:24.222Z,58.70
2019-04-11T19:20:55.593Z,58.70
2019-04-11T19:23:27.305Z,58.90
2019-04-11T19:25:58.598Z,59.00
2019-04-11T19:28:30.019Z,59.10
2019-04-11T19:31:01.462Z,59.30
2019-04-11T19:33:34.238Z,59.20
2019-04-11T19:36:06.399Z,59.40
2019-04-11T19:38:42.992Z,59.60
2019-04-11T19:41:16.960Z,59.70
2019-04-11T19:43:48.724Z,59.90
2019-04-11T19:46:20.440Z,60.10
2019-04-11T19:48:55.330Z,60.20
2019-04-11T19:51:29.061Z,61.20
2019-04-11T19:54:03.256Z,61.00
2019-04-11T19:56:49.238Z,61.20
2019-04-11T19:59:21.361Z,61.20
2019-04-11T20:01:53.299Z,61.30
2019-04-11T20:04:28.813Z,61.40
2019-04-11T20:07:01.761Z,61.30
2019-04-11T20:09:33.702Z,61.30
2019-04-11T20:12:05.250Z,61.10
2019-04-11T20:14:38.821Z,61.00
2019-04-11T20:17:10.275Z,61.80
2019-04-11T20:19:41.681Z,60.90
2019-04-11T20:22:13.185Z,60.90
2019-04-11T20:24:46.926Z,60.60
2019-04-11T20:27:20.245Z,60.30
2019-04-11T20:29:55.182Z,60.20
2019-04-11T20:32:27.618Z,60.00
2019-04-11T20:35:03.882Z,59.80
2019-04-11T20:37:44.479Z,59.70
2019-04-11T20:40:40.562Z,60.50
2019-04-11T20:43:55.890Z,59.80
2019-04-11T20:47:01.248Z,59.70
2019-04-11T20:56:10.971Z,59.60
2019-04-11T21:02:15.648Z,59.50
2019-04-11T21:04:51.561Z,59.50
2019-04-11T21:07:31.583Z,59.50
2019-04-11T21:10:03.711Z,59.40
2019-04-11T21:12:37.995Z,59.40
2019-04-11T21:15:09.553Z,59.20
2019-04-11T21:17:45.863Z,60.00
2019-04-11T21:20:26.426Z,59.30
2019-04-11T21:23:01.039Z,59.30
2019-04-11T21:25:37.181Z,59.10
2019-04-11T21:28:11.823Z,59.20
2019-04-11T21:30:43.076Z,58.90
2019-04-11T21:33:35.803Z,58.90
2019-04-11T21:36:22.254Z,58.90
2019-04-11T21:39:17.200Z,58.90
2019-04-11T21:41:54.611Z,58.70
2019-04-11T21:44:29.530Z,58.70
2019-04-11T21:47:04.076Z,58.70
2019-04-11T21:49:47.578Z,58.70
2019-04-11T21:52:19.060Z,58.70
2019-04-11T21:54:56.057Z,58.70
2019-04-11T21:57:43.034Z,58.80
